Time;durP1;ratioP1;P1;durP2;ratioP2;P2;SDS_P1;SDS_P2;PMS_P1;PMS_P2;Temp;Humidity;BMP_temperature;BMP_pressure;BME280_temperature;BME280_humidity;BME280_pressure;Samples;Min_cycle;Max_cycle;Signal;HPM_P1;HPM_P2
2021/12/04 00:00:36;;;;;;;54.85;29.35;;;4.30;99.90;;;;;;5031265;28;20057;-84
2021/12/04 00:03:02;;;;;;;59.53;29.20;;;4.30;99.90;;;;;;5030858;28;20061;-84
2021/12/04 00:05:28;;;;;;;67.00;31.80;;;5.20;99.90;;;;;;5030740;28;20049;-85
2021/12/04 00:07:53;;;;;;;59.90;31.00;;;4.30;99.90;;;;;;5031450;28;20122;-85
2021/12/04 00:10:27;;;;;;;60.45;31.63;;;5.20;99.90;;;;;;5032230;28;20045;-85
2021/12/04 00:12:53;;;;;;;61.95;30.13;;;5.20;99.90;;;;;;5031541;28;20373;-85
2021/12/04 00:15:18;;;;;;;62.22;31.67;;;5.10;99.90;;;;;;5047685;28;20079;-85
2021/12/04 00:17:44;;;;;;;63.97;31.40;;;4.30;99.90;;;;;;5030735;28;20049;-84
2021/12/04 00:20:11;;;;;;;65.82;30.33;;;5.10;99.90;;;;;;5046100;28;20048;-85
2021/12/04 00:22:38;;;;;;;66.38;32.58;;;4.30;99.90;;;;;;5047080;28;20088;-84
2021/12/04 00:25:05;;;;;;;75.15;32.35;;;4.80;99.90;;;;;;5031283;28;20094;-84
2021/12/04 00:27:31;;;;;;;74.30;32.05;;;4.30;99.90;;;;;;5029440;28;20496;-84
2021/12/04 00:29:58;;;;;;;77.45;33.85;;;4.50;99.90;;;;;;5030833;28;20077;-84
2021/12/04 00:32:32;;;;;;;80.32;32.35;;;4.90;99.90;;;;;;5030755;28;20481;-84
2021/12/04 00:37:57;;;;;;;81.22;33.15;;;4.30;99.90;;;;;;5047090;28;20206;-84
2021/12/04 00:43:23;;;;;;;89.95;35.30;;;4.30;99.90;;;;;;5046039;28;20557;-84
2021/12/04 00:51:18;;;;;;;93.95;34.08;;;4.30;99.90;;;;;;5047698;28;20637;-84
2021/12/04 00:53:44;;;;;;;90.13;35.22;;;4.30;99.90;;;;;;5046792;28;20475;-84
2021/12/04 00:56:10;;;;;;;101.28;35.97;;;4.70;99.90;;;;;;5046627;28;20048;-84
2021/12/04 00:58:35;;;;;;;97.13;35.80;;;4.30;99.90;;;;;;5046724;28;20037;-84
2021/12/04 01:01:01;;;;;;;95.97;36.15;;;5.30;99.90;;;;;;5046335;28;20072;-84
2021/12/04 01:03:27;;;;;;;95.72;34.90;;;4.50;99.90;;;;;;5045756;28;20057;-84
2021/12/04 01:05:53;;;;;;;98.97;35.72;;;4.20;99.90;;;;;;5046688;28;20084;-83
2021/12/04 01:08:19;;;;;;;102.15;37.30;;;4.20;99.90;;;;;;5045477;28;20135;-84
2021/12/04 01:10:44;;;;;;;92.00;35.97;;;4.50;99.90;;;;;;5030176;28;20045;-84
2021/12/04 01:13:11;;;;;;;96.13;36.78;;;4.30;99.90;;;;;;5046542;28;20051;-84
2021/12/04 01:15:42;;;;;;;100.00;35.42;;;4.30;99.90;;;;;;5029942;28;20037;-84
2021/12/04 01:18:09;;;;;;;96.03;35.80;;;4.20;99.90;;;;;;5029837;28;20131;-84
2021/12/04 01:20:35;;;;;;;95.80;35.80;;;4.20;99.90;;;;;;5030178;28;20055;-84
2021/12/04 01:23:01;;;;;;;100.63;36.70;;;4.30;99.90;;;;;;5028964;28;20083;-84
2021/12/04 01:25:27;;;;;;;107.72;36.80;;;4.20;99.90;;;;;;5046744;28;20077;-84
2021/12/04 01:27:53;;;;;;;96.78;35.47;;;4.30;99.90;;;;;;5046962;28;20045;-84
2021/12/04 01:30:19;;;;;;;102.88;34.58;;;4.20;99.90;;;;;;5045545;28;20048;-84
2021/12/04 01:32:44;;;;;;;108.95;37.47;;;4.30;99.90;;;;;;5046030;28;20060;-84
2021/12/04 01:35:10;;;;;;;117.60;37.33;;;4.30;99.90;;;;;;5044922;28;20045;-84
2021/12/04 01:37:36;;;;;;;111.22;37.65;;;5.10;99.90;;;;;;5029256;28;20056;-84
2021/12/04 01:40:03;;;;;;;116.47;36.92;;;4.20;99.90;;;;;;5049033;28;20041;-84
2021/12/04 01:42:35;;;;;;;109.32;37.63;;;4.20;99.90;;;;;;5033844;28;20114;-84
2021/12/04 01:45:03;;;;;;;94.85;35.58;;;4.20;99.90;;;;;;5033049;28;20110;-84
2021/12/04 01:47:29;;;;;;;109.47;35.60;;;4.20;99.90;;;;;;5050327;28;20091;-84
2021/12/04 01:49:55;;;;;;;124.38;37.45;;;5.50;99.90;;;;;;5049813;28;20088;-83
2021/12/04 01:52:21;;;;;;;121.53;36.47;;;4.20;99.90;;;;;;5033082;28;20056;-84
2021/12/04 01:54:50;;;;;;;112.13;37.30;;;4.20;99.90;;;;;;5033631;28;20041;-84
2021/12/04 01:57:16;;;;;;;123.10;39.28;;;4.30;99.90;;;;;;5033019;28;20778;-84
2021/12/04 01:59:43;;;;;;;119.18;36.85;;;4.20;99.90;;;;;;5033388;28;20194;-84
2021/12/04 02:02:09;;;;;;;120.03;37.38;;;4.20;99.90;;;;;;5033332;28;20052;-85
2021/12/04 02:04:35;;;;;;;130.35;37.55;;;4.60;99.90;;;;;;5031323;28;20059;-83
2021/12/04 02:07:03;;;;;;;128.52;37.03;;;5.10;99.90;;;;;;5033713;28;20048;-84
2021/12/04 02:09:32;;;;;;;124.80;37.88;;;4.50;99.90;;;;;;5033161;28;20044;-83
2021/12/04 02:11:58;;;;;;;129.88;36.63;;;4.20;99.90;;;;;;5033191;28;20044;-84
2021/12/04 02:14:24;;;;;;;139.95;38.58;;;4.20;99.90;;;;;;5049565;28;20041;-84
2021/12/04 02:16:51;;;;;;;110.32;35.45;;;4.20;99.90;;;;;;5050274;28;20231;-85
2021/12/04 02:19:17;;;;;;;143.43;39.20;;;4.20;99.90;;;;;;5031957;28;20055;-84
2021/12/04 02:21:43;;;;;;;142.88;39.50;;;4.20;99.90;;;;;;5033546;28;20485;-84
2021/12/04 02:24:08;;;;;;;123.78;36.10;;;4.20;99.90;;;;;;5032328;28;20045;-84
2021/12/04 02:26:34;;;;;;;134.73;37.33;;;4.20;99.90;;;;;;5032188;28;20076;-84
2021/12/04 02:29:00;;;;;;;135.20;36.55;;;4.20;99.90;;;;;;5033463;28;20136;-84
2021/12/04 02:31:26;;;;;;;126.03;36.00;;;4.20;99.90;;;;;;5032738;28;20098;-84
2021/12/04 02:33:53;;;;;;;120.30;35.90;;;4.20;99.90;;;;;;5048017;28;20049;-84
2021/12/04 02:36:20;;;;;;;151.07;38.05;;;4.20;99.90;;;;;;5032886;28;20055;-84
2021/12/04 02:38:50;;;;;;;148.10;38.55;;;4.20;99.90;;;;;;5049463;28;20045;-84
2021/12/04 02:41:16;;;;;;;146.25;37.80;;;4.20;99.90;;;;;;5032103;28;20098;-84
2021/12/04 02:43:42;;;;;;;164.13;39.40;;;4.60;99.90;;;;;;5049143;28;20135;-84
2021/12/04 02:46:08;;;;;;;142.68;37.83;;;4.20;99.90;;;;;;5033301;28;20124;-84
2021/12/04 02:48:33;;;;;;;142.35;36.17;;;4.20;99.90;;;;;;5030894;28;20554;-84
2021/12/04 02:50:59;;;;;;;136.80;36.65;;;4.20;99.90;;;;;;5032168;28;20512;-84
2021/12/04 02:53:25;;;;;;;148.02;36.13;;;4.20;99.90;;;;;;5032087;28;20049;-84
2021/12/04 02:55:53;;;;;;;155.13;37.35;;;4.20;99.90;;;;;;5048678;28;20080;-84
2021/12/04 02:58:19;;;;;;;156.55;37.95;;;4.20;99.90;;;;;;5032397;28;20078;-84
2021/12/04 03:00:51;;;;;;;145.27;34.97;;;4.20;99.90;;;;;;5031757;28;20096;-84
2021/12/04 03:03:19;;;;;;;135.55;35.22;;;4.20;99.90;;;;;;5031457;28;20084;-84
2021/12/04 03:05:49;;;;;;;169.82;36.42;;;4.10;99.90;;;;;;5032257;28;20498;-84
2021/12/04 03:08:16;;;;;;;145.40;37.03;;;4.20;99.90;;;;;;5048075;28;20045;-84
2021/12/04 03:10:42;;;;;;;180.40;39.63;;;4.10;99.90;;;;;;5032088;28;20045;-84
2021/12/04 03:13:09;;;;;;;138.93;34.55;;;5.10;99.90;;;;;;5029497;28;20132;-84
2021/12/04 03:15:38;;;;;;;142.52;34.72;;;4.10;99.90;;;;;;5047631;28;20049;-84
2021/12/04 03:18:05;;;;;;;142.98;35.03;;;4.90;99.90;;;;;;5048577;28;20091;-84
2021/12/04 03:20:32;;;;;;;144.40;34.45;;;4.10;99.90;;;;;;5031510;28;20045;-84
2021/12/04 03:23:01;;;;;;;163.93;35.13;;;4.20;99.90;;;;;;5031642;28;20041;-84
2021/12/04 03:25:27;;;;;;;143.90;35.33;;;4.10;99.90;;;;;;5031535;28;20477;-84
2021/12/04 03:27:53;;;;;;;116.15;32.45;;;4.60;99.90;;;;;;5032707;28;20132;-84
2021/12/04 03:30:37;;;;;;;112.45;32.40;;;4.10;99.90;;;;;;5031049;28;20127;-84
2021/12/04 03:35:18;;;;;;;109.35;30.90;;;4.10;99.90;;;;;;5031057;28;20052;-84
2021/12/04 03:41:07;;;;;;;93.30;28.80;;;4.10;99.90;;;;;;5048854;28;20051;-84
2021/12/04 03:43:33;;;;;;;104.32;30.63;;;4.10;99.90;;;;;;5029938;28;20123;-85
2021/12/04 03:46:01;;;;;;;87.30;27.23;;;4.10;99.90;;;;;;5048698;28;20413;-84
2021/12/04 03:48:39;;;;;;;94.85;27.92;;;5.10;99.90;;;;;;5030620;28;20041;-84
2021/12/04 03:51:07;;;;;;;104.57;28.48;;;4.10;99.90;;;;;;5047371;28;20051;-84
2021/12/04 03:53:33;;;;;;;81.55;27.38;;;4.80;99.90;;;;;;5047694;28;20416;-84
2021/12/04 03:55:59;;;;;;;83.72;26.90;;;4.10;99.90;;;;;;5031830;28;20099;-84
2021/12/04 03:58:24;;;;;;;86.55;26.73;;;4.10;99.90;;;;;;5046775;28;20040;-84
2021/12/04 04:00:51;;;;;;;90.65;27.77;;;4.10;99.90;;;;;;5031235;28;20070;-84
2021/12/04 04:03:17;;;;;;;89.22;27.58;;;4.90;99.90;;;;;;5045231;28;20114;-84
2021/12/04 04:05:43;;;;;;;82.15;27.52;;;4.70;99.90;;;;;;5030527;28;20501;-84
2021/12/04 04:08:11;;;;;;;92.88;27.77;;;4.70;99.90;;;;;;5048080;28;20049;-84
2021/12/04 04:10:37;;;;;;;90.68;27.73;;;4.10;99.90;;;;;;5030908;28;20098;-84
2021/12/04 04:13:03;;;;;;;84.10;27.20;;;4.00;99.90;;;;;;5030500;28;20048;-84
2021/12/04 04:15:29;;;;;;;87.70;26.65;;;4.90;99.90;;;;;;5030711;28;20110;-84
2021/12/04 04:17:54;;;;;;;84.75;26.83;;;4.10;99.90;;;;;;5030937;28;20056;-84
2021/12/04 04:20:21;;;;;;;80.57;26.10;;;4.10;99.90;;;;;;5030699;28;20036;-83
2021/12/04 04:22:48;;;;;;;83.10;27.65;;;4.10;99.90;;;;;;5047337;28;20063;-83
2021/12/04 04:25:16;;;;;;;81.97;26.80;;;4.10;99.90;;;;;;5029672;28;20451;-83
2021/12/04 04:27:42;;;;;;;90.60;27.08;;;4.10;99.90;;;;;;5030559;28;20102;-84
2021/12/04 04:30:14;;;;;;;83.97;25.02;;;4.10;99.90;;;;;;5031003;28;20400;-84
2021/12/04 04:32:41;;;;;;;87.72;26.08;;;4.80;99.90;;;;;;5046418;28;20045;-84
2021/12/04 04:35:10;;;;;;;84.38;26.77;;;4.10;99.90;;;;;;5030507;28;20051;-84
2021/12/04 04:57:31;;;;;;;79.35;25.27;;;4.80;99.90;;;;;;5046895;28;20056;-84
2021/12/04 04:59:34;;;;;;;87.55;25.00;;;4.10;99.90;;;;;;5046928;28;20053;-84
2021/12/04 05:02:24;;;;;;;80.47;24.15;;;4.40;99.90;;;;;;5029678;28;20462;-83
2021/12/04 05:12:56;;;;;;;83.45;26.15;;;4.00;99.90;;;;;;5047695;28;20122;-84
2021/12/04 05:15:35;;;;;;;79.47;24.15;;;4.00;99.90;;;;;;5029030;28;20076;-84
2021/12/04 05:18:10;;;;;;;87.65;24.73;;;4.90;99.90;;;;;;5029427;28;20087;-83
2021/12/04 05:20:38;;;;;;;79.47;24.02;;;4.40;99.90;;;;;;5030298;28;20052;-83
2021/12/04 05:23:07;;;;;;;72.20;22.65;;;4.00;99.90;;;;;;5045748;28;20091;-83
2021/12/04 05:25:35;;;;;;;78.90;24.55;;;4.00;99.90;;;;;;5029966;28;20037;-84
2021/12/04 05:28:03;;;;;;;82.95;25.67;;;4.00;99.90;;;;;;5030298;28;20036;-84
2021/12/04 05:30:29;;;;;;;78.00;23.50;;;4.00;99.90;;;;;;5029186;28;20092;-83
2021/12/04 05:32:55;;;;;;;73.72;23.08;;;4.00;99.90;;;;;;5029716;28;20396;-84
2021/12/04 05:35:21;;;;;;;95.53;26.02;;;4.00;99.90;;;;;;5029146;28;20524;-84
2021/12/04 05:37:47;;;;;;;76.47;24.30;;;4.00;99.90;;;;;;5046394;28;20513;-84
2021/12/04 05:40:14;;;;;;;74.05;23.20;;;4.00;99.90;;;;;;5030292;28;20412;-84
2021/12/04 05:42:41;;;;;;;77.22;24.10;;;4.00;99.90;;;;;;5045306;28;20052;-84
2021/12/04 05:45:14;;;;;;;83.47;23.70;;;4.00;99.90;;;;;;5029133;28;20503;-84
2021/12/04 05:47:46;;;;;;;76.47;24.20;;;4.00;99.90;;;;;;5046680;28;20133;-84
2021/12/04 05:53:17;;;;;;;80.43;24.02;;;4.60;99.90;;;;;;5046722;28;20408;-84
2021/12/04 05:55:52;;;;;;;65.40;22.23;;;4.00;99.90;;;;;;5030035;28;20049;-83
2021/12/04 05:58:22;;;;;;;69.50;22.55;;;4.80;99.90;;;;;;5029129;28;20056;-84
2021/12/04 06:00:48;;;;;;;70.60;21.80;;;4.00;99.90;;;;;;5029873;28;20044;-84
2021/12/04 06:03:14;;;;;;;69.75;22.02;;;4.00;99.90;;;;;;5045601;28;20489;-84
2021/12/04 06:05:40;;;;;;;64.85;21.25;;;4.70;99.90;;;;;;5029480;28;20471;-84
2021/12/04 06:08:06;;;;;;;65.45;21.30;;;3.90;99.90;;;;;;5029794;28;20076;-84
2021/12/04 06:10:31;;;;;;;65.25;21.02;;;4.00;99.90;;;;;;5029265;28;20045;-84
2021/12/04 06:12:57;;;;;;;68.68;22.65;;;4.00;99.90;;;;;;5030019;28;20049;-84
2021/12/04 06:15:23;;;;;;;62.03;20.35;;;3.90;99.90;;;;;;5046523;28;20041;-84
2021/12/04 06:17:51;;;;;;;66.85;20.85;;;4.00;99.90;;;;;;5045787;28;20041;-84
2021/12/04 06:23:01;;;;;;;57.67;19.98;;;3.90;99.90;;;;;;5046559;28;20514;-84
2021/12/04 06:25:27;;;;;;;61.72;21.40;;;4.70;99.90;;;;;;5029163;28;20041;-84
2021/12/04 06:27:54;;;;;;;61.67;21.15;;;4.30;99.90;;;;;;5033044;28;20045;-83
2021/12/04 06:30:20;;;;;;;60.55;21.50;;;4.00;99.90;;;;;;5049776;28;20047;-84
2021/12/04 06:32:48;;;;;;;60.28;19.80;;;4.00;99.90;;;;;;5031017;28;20040;-83
2021/12/04 06:35:16;;;;;;;57.92;20.35;;;4.50;99.90;;;;;;5048824;28;20059;-83
2021/12/04 06:37:42;;;;;;;56.92;20.10;;;4.00;99.90;;;;;;5032329;28;20110;-84
2021/12/04 06:40:11;;;;;;;61.78;19.88;;;4.60;99.90;;;;;;5032388;28;20497;-83
2021/12/04 06:42:37;;;;;;;58.17;20.60;;;4.00;99.90;;;;;;5032729;28;20500;-84
2021/12/04 06:45:04;;;;;;;66.10;20.40;;;4.00;99.90;;;;;;5049553;28;20052;-84
2021/12/04 06:47:31;;;;;;;58.35;20.27;;;4.00;99.90;;;;;;5048657;28;20127;-84
2021/12/04 06:50:03;;;;;;;60.65;21.38;;;4.80;99.90;;;;;;5032042;28;20052;-84
2021/12/04 06:52:30;;;;;;;55.08;19.92;;;4.00;99.90;;;;;;5032500;28;20056;-84
2021/12/04 06:54:58;;;;;;;67.22;21.58;;;4.00;99.90;;;;;;5032279;28;20123;-84
2021/12/04 06:57:24;;;;;;;56.55;19.60;;;4.00;99.90;;;;;;5049595;28;20500;-85
2021/12/04 06:59:52;;;;;;;59.10;20.75;;;4.00;99.90;;;;;;5031281;28;20403;-84
2021/12/04 07:02:19;;;;;;;57.95;21.10;;;4.20;99.90;;;;;;5049296;28;20325;-84
2021/12/04 07:04:45;;;;;;;64.30;20.45;;;4.50;99.90;;;;;;5058204;28;20485;-85
2021/12/04 07:07:11;;;;;;;66.32;21.40;;;4.00;99.90;;;;;;5076124;28;20052;-85
2021/12/04 07:09:38;;;;;;;65.20;19.98;;;4.00;99.90;;;;;;5061105;28;20479;-84
2021/12/04 07:12:05;;;;;;;62.22;21.13;;;3.90;99.90;;;;;;5078465;28;20036;-85
2021/12/04 07:14:31;;;;;;;59.67;20.95;;;4.00;99.90;;;;;;5059327;28;20056;-84
2021/12/04 07:17:01;;;;;;;61.22;20.85;;;4.00;99.90;;;;;;5061916;28;20036;-84
2021/12/04 07:19:27;;;;;;;65.90;21.52;;;4.00;99.90;;;;;;5077365;28;20181;-84
2021/12/04 07:21:52;;;;;;;77.80;21.83;;;4.00;99.90;;;;;;5045465;28;20127;-83
2021/12/04 07:24:18;;;;;;;84.53;23.05;;;4.90;99.90;;;;;;5052759;28;20411;-84
2021/12/04 07:26:45;;;;;;;75.18;22.50;;;4.90;99.90;;;;;;5039362;28;20564;-83
2021/12/04 07:29:10;;;;;;;88.40;24.80;;;4.00;99.90;;;;;;5031193;28;20055;-84
2021/12/04 07:31:37;;;;;;;82.78;22.95;;;4.00;99.90;;;;;;5059295;28;20045;-83
2021/12/04 07:34:04;;;;;;;91.05;22.95;;;4.00;99.90;;;;;;5037165;28;20037;-86
2021/12/04 07:36:29;;;;;;;94.53;23.90;;;4.00;99.90;;;;;;5033672;28;20057;-84
2021/12/04 07:38:56;;;;;;;98.63;23.25;;;5.20;99.90;;;;;;5045413;28;20048;-84
2021/12/04 07:41:22;;;;;;;91.82;24.40;;;4.00;99.90;;;;;;5048665;28;20052;-83
2021/12/04 07:43:48;;;;;;;99.53;24.50;;;5.20;99.90;;;;;;5047487;28;20057;-84
2021/12/04 07:46:14;;;;;;;111.72;24.05;;;4.70;99.90;;;;;;5048094;28;20043;-83
2021/12/04 07:48:40;;;;;;;97.30;23.77;;;4.00;99.90;;;;;;5047643;28;20045;-84
2021/12/04 07:51:06;;;;;;;95.22;23.40;;;4.00;99.90;;;;;;5047653;28;20106;-83
2021/12/04 07:53:33;;;;;;;108.18;24.83;;;4.00;99.90;;;;;;5047867;28;20437;-83
2021/12/04 07:56:00;;;;;;;100.90;24.75;;;4.40;99.90;;;;;;5047719;28;20140;-83
2021/12/04 07:58:26;;;;;;;87.72;23.30;;;4.00;99.90;;;;;;5048413;28;20044;-83
2021/12/04 08:00:52;;;;;;;106.47;24.77;;;4.40;99.90;;;;;;5048649;28;20041;-83
2021/12/04 08:03:18;;;;;;;100.20;24.63;;;4.00;99.90;;;;;;5045856;28;20390;-83
2021/12/04 08:05:46;;;;;;;82.65;23.52;;;4.00;99.90;;;;;;5031355;28;20136;-83
2021/12/04 08:08:12;;;;;;;86.07;23.42;;;4.00;99.90;;;;;;5047635;28;20045;-83
2021/12/04 08:10:38;;;;;;;91.78;24.02;;;4.10;99.90;;;;;;5046959;28;20136;-83
2021/12/04 08:13:04;;;;;;;73.65;21.77;;;4.00;99.90;;;;;;5046796;28;20132;-84
2021/12/04 08:15:31;;;;;;;83.32;22.40;;;4.00;99.90;;;;;;5046840;28;20127;-83
2021/12/04 08:17:57;;;;;;;73.18;21.17;;;4.20;99.90;;;;;;5047023;28;20583;-84
2021/12/04 08:20:25;;;;;;;81.65;22.73;;;4.00;99.90;;;;;;5046970;28;20052;-84
2021/12/04 08:22:51;;;;;;;66.55;22.20;;;4.00;99.90;;;;;;5047667;28;20051;-84
2021/12/04 08:25:18;;;;;;;61.28;20.13;;;5.20;99.90;;;;;;5046424;28;20088;-84
2021/12/04 08:27:46;;;;;;;62.25;21.17;;;4.10;99.90;;;;;;5037034;28;20094;-84
2021/12/04 08:30:15;;;;;;;54.58;20.35;;;4.10;99.90;;;;;;5047256;28;20048;-84
2021/12/04 08:32:41;;;;;;;60.08;20.73;;;4.10;99.90;;;;;;5046847;28;20043;-83
2021/12/04 08:35:09;;;;;;;60.22;20.10;;;4.90;99.90;;;;;;5030221;28;20048;-83
2021/12/04 08:37:35;;;;;;;64.65;20.73;;;4.10;99.90;;;;;;5030394;28;20041;-83
2021/12/04 08:40:02;;;;;;;61.70;20.65;;;4.20;99.90;;;;;;5030031;28;20044;-83
2021/12/04 08:42:28;;;;;;;65.38;21.30;;;4.10;99.90;;;;;;5046996;28;20045;-83
2021/12/04 08:44:54;;;;;;;72.38;22.15;;;4.10;99.90;;;;;;5031048;28;20049;-83
2021/12/04 08:47:20;;;;;;;68.20;21.92;;;4.50;99.90;;;;;;5029809;28;20053;-84
2021/12/04 08:49:46;;;;;;;65.20;21.38;;;4.10;99.90;;;;;;5045920;28;20033;-85
2021/12/04 08:52:16;;;;;;;56.42;19.50;;;4.10;99.90;;;;;;5045178;28;20099;-85
2021/12/04 08:54:42;;;;;;;44.20;17.83;;;4.20;99.90;;;;;;5038253;28;20109;-84
2021/12/04 08:57:08;;;;;;;45.25;18.08;;;4.10;99.90;;;;;;5041479;28;20127;-84
2021/12/04 08:59:35;;;;;;;50.50;17.40;;;4.20;99.90;;;;;;5040031;28;20389;-84
2021/12/04 09:02:01;;;;;;;55.45;18.45;;;4.10;99.90;;;;;;5039390;28;20136;-85
2021/12/04 09:04:30;;;;;;;48.72;17.20;;;4.20;99.90;;;;;;5054230;28;21050;-84
2021/12/04 09:06:57;;;;;;;46.22;17.15;;;4.20;99.90;;;;;;5049836;28;20033;-84
2021/12/04 09:09:23;;;;;;;50.47;16.95;;;4.90;99.90;;;;;;5030341;28;20072;-84
2021/12/04 09:11:54;;;;;;;44.20;17.33;;;4.20;99.90;;;;;;5030711;28;20044;-84
2021/12/04 09:14:24;;;;;;;41.70;16.75;;;4.20;99.90;;;;;;5046725;28;20048;-85
2021/12/04 09:16:52;;;;;;;36.40;15.95;;;4.20;99.90;;;;;;5047459;28;20037;-84
2021/12/04 09:19:19;;;;;;;39.10;15.57;;;4.40;99.90;;;;;;5045864;28;20051;-84
2021/12/04 09:21:46;;;;;;;38.13;14.60;;;4.20;99.90;;;;;;5074065;28;20040;-84
2021/12/04 09:24:14;;;;;;;35.80;14.38;;;4.20;99.90;;;;;;5070001;28;20044;-85
2021/12/04 09:26:53;;;;;;;35.40;15.10;;;4.20;99.90;;;;;;5070455;28;20047;-86
2021/12/04 09:30:00;;;;;;;31.77;14.10;;;4.30;99.90;;;;;;5075206;28;20040;-83
2021/12/04 09:32:26;;;;;;;29.23;13.65;;;5.20;99.90;;;;;;5067482;28;20056;-86
2021/12/04 09:59:08;;;;;;;26.38;12.63;;;3.80;99.90;;;;;;5067123;28;20041;-84
2021/12/04 10:00:24;;;;;;;23.52;13.27;;;4.40;99.90;;;;;;5046592;28;20103;-85
2021/12/04 10:03:14;;;;;;;23.63;12.90;;;4.40;99.90;;;;;;5050494;28;20068;-85
2021/12/04 10:06:19;;;;;;;22.38;12.45;;;4.90;99.90;;;;;;5050476;28;20051;-86
2021/12/04 10:17:00;;;;;;;22.30;13.57;;;4.60;99.90;;;;;;5077761;28;20526;-85
2021/12/04 10:19:42;;;;;;;21.92;13.18;;;4.60;99.90;;;;;;5078734;28;20125;-85
2021/12/04 10:22:24;;;;;;;23.58;13.38;;;4.70;99.90;;;;;;5053790;28;20131;-86
2021/12/04 10:32:04;;;;;;;23.60;13.50;;;4.70;99.90;;;;;;5069706;28;20159;-86
2021/12/04 10:33:46;;;;;;;21.67;12.45;;;5.60;99.90;;;;;;5049454;28;20056;-87
2021/12/04 10:36:13;;;;;;;22.77;12.85;;;4.80;99.90;;;;;;5050707;28;20470;-87
2021/12/04 10:38:55;;;;;;;19.85;12.23;;;5.10;99.90;;;;;;5032763;28;20132;-87
2021/12/04 10:41:34;;;;;;;20.00;12.40;;;4.90;99.90;;;;;;5033742;28;20155;-87
2021/12/04 10:44:10;;;;;;;21.48;12.35;;;4.90;99.90;;;;;;5032081;28;20041;-86
2021/12/04 10:46:36;;;;;;;20.60;12.05;;;4.90;99.90;;;;;;5032513;28;20049;-86
2021/12/04 10:49:10;;;;;;;20.80;11.98;;;5.50;99.90;;;;;;5049054;28;20048;-85
2021/12/04 10:51:52;;;;;;;18.55;11.70;;;5.00;99.90;;;;;;5049844;28;20045;-86
2021/12/04 10:54:25;;;;;;;17.23;12.07;;;5.40;99.90;;;;;;5033480;28;20513;-86
2021/12/04 10:57:51;;;;;;;19.42;11.93;;;5.50;99.90;;;;;;5034719;28;20088;-86
2021/12/04 11:00:38;;;;;;;19.23;11.77;;;5.00;99.90;;;;;;5049044;28;20145;-86
2021/12/04 11:03:35;;;;;;;19.15;12.02;;;5.90;99.90;;;;;;5031808;28;20053;-84
2021/12/04 11:18:41;;;;;;;21.52;12.90;;;5.10;99.90;;;;;;5049282;28;20041;-85
2021/12/04 11:21:04;;;;;;;17.60;11.30;;;5.10;99.90;;;;;;5023749;22;20460;-87
2021/12/04 11:26:07;;;;;;;17.42;10.90;;;5.10;99.90;;;;;;5026615;28;20107;-86
2021/12/04 11:40:22;;;;;;;18.55;11.13;;;5.40;99.90;;;;;;5025959;28;20060;-88
2021/12/04 11:42:55;;;;;;;17.95;11.23;;;6.30;99.90;;;;;;4993339;28;20703;-87
2021/12/04 11:45:28;;;;;;;;;;;6.20;99.90;;;;;;5010281;28;20516;-88
2021/12/04 11:47:56;;;;;;;17.58;10.55;;;5.60;99.90;;;;;;5010151;28;20459;-88
2021/12/04 11:50:41;;;;;;;17.90;11.43;;;5.10;99.90;;;;;;4993434;28;20046;-88
2021/12/04 11:53:17;;;;;;;20.20;11.13;;;5.60;99.90;;;;;;4989854;28;20046;-88
2021/12/04 11:55:52;;;;;;;19.95;12.02;;;6.30;99.90;;;;;;4989515;28;20047;-87
2021/12/04 11:58:22;;;;;;;20.17;11.85;;;5.10;99.90;;;;;;4989440;28;20108;-88
2021/12/04 12:00:48;;;;;;;18.92;11.35;;;5.20;99.90;;;;;;4973778;28;20133;-89
2021/12/04 12:03:17;;;;;;;23.45;12.23;;;5.20;99.90;;;;;;4987601;28;20050;-87
2021/12/04 12:05:53;;;;;;;18.85;11.70;;;5.70;99.90;;;;;;4989818;28;20379;-87
2021/12/04 12:08:24;;;;;;;21.13;11.88;;;6.30;99.90;;;;;;4973249;28;20050;-87
2021/12/04 12:11:02;;;;;;;25.05;13.82;;;5.20;99.90;;;;;;4988767;28;20046;-87
2021/12/04 12:13:34;;;;;;;20.77;12.60;;;5.20;99.90;;;;;;4989682;28;20038;-88
2021/12/04 12:16:06;;;;;;;22.88;11.52;;;5.10;99.90;;;;;;4990171;28;20046;-88
2021/12/04 12:18:51;;;;;;;20.53;12.30;;;5.10;99.90;;;;;;4987050;28;20066;-87
2021/12/04 12:21:50;;;;;;;19.65;11.00;;;4.40;99.90;;;;;;4989680;28;20296;-89
2021/12/04 12:27:34;;;;;;;21.25;12.57;;;5.30;99.90;;;;;;4989547;28;20506;-89
2021/12/04 12:33:24;;;;;;;29.20;14.07;;;5.00;99.90;;;;;;4989082;28;20053;-88
2021/12/04 12:36:11;;;;;;;26.33;13.45;;;5.30;99.90;;;;;;4989658;28;20050;-88
2021/12/04 12:38:49;;;;;;;28.15;14.75;;;5.00;99.90;;;;;;4988896;28;20050;-89
2021/12/04 12:41:31;;;;;;;25.17;14.07;;;5.10;99.90;;;;;;4973558;28;20188;-88
2021/12/04 12:43:59;;;;;;;24.85;14.05;;;5.20;99.90;;;;;;4989517;28;20057;-87
2021/12/04 12:46:34;;;;;;;24.70;13.35;;;6.30;99.90;;;;;;4989072;28;20077;-89
2021/12/04 12:49:00;;;;;;;22.60;12.90;;;5.80;99.90;;;;;;4989034;28;20058;-89
2021/12/04 12:51:34;;;;;;;23.42;13.10;;;6.50;99.90;;;;;;4989202;28;20128;-88
2021/12/04 12:54:07;;;;;;;25.60;14.07;;;5.30;99.90;;;;;;4989935;28;20073;-90
2021/12/04 12:56:46;;;;;;;30.70;17.23;;;5.90;99.90;;;;;;4989724;28;20046;-90
2021/12/04 12:59:31;;;;;;;32.03;18.15;;;6.00;99.90;;;;;;4989287;28;20344;-88
2021/12/04 13:13:46;;;;;;;34.53;18.67;;;5.00;99.90;;;;;;4987940;28;20042;-89
2021/12/04 13:16:20;;;;;;;38.13;22.42;;;5.80;99.90;;;;;;4989392;28;20057;-89
2021/12/04 13:18:58;;;;;;;35.03;19.70;;;5.00;99.90;;;;;;4972173;28;20058;-89
2021/12/04 13:21:27;;;;;;;36.13;20.27;;;5.00;99.90;;;;;;4989044;28;20490;-89
2021/12/04 13:23:56;;;;;;;35.65;19.85;;;6.00;99.90;;;;;;4989107;28;20056;-88
2021/12/04 13:26:31;;;;;;;37.63;20.52;;;5.00;99.90;;;;;;4989648;28;20053;-89
2021/12/04 13:29:00;;;;;;;39.70;20.95;;;4.40;99.90;;;;;;4989871;28;20050;-88
2021/12/04 13:31:26;;;;;;;39.05;21.85;;;5.70;99.90;;;;;;4989688;28;20054;-88
2021/12/04 13:33:53;;;;;;;39.35;21.48;;;6.00;99.90;;;;;;4987783;28;20038;-88
2021/12/04 13:36:23;;;;;;;37.10;21.80;;;5.40;99.90;;;;;;4992594;28;20046;-89
2021/12/04 13:39:09;;;;;;;43.75;22.88;;;5.00;99.90;;;;;;4992777;28;20048;-89
2021/12/04 13:41:38;;;;;;;42.00;23.08;;;5.00;99.90;;;;;;4992010;28;20051;-89
2021/12/04 13:44:07;;;;;;;44.85;24.10;;;5.60;99.90;;;;;;4992265;28;20104;-88
2021/12/04 13:46:52;;;;;;;43.13;24.05;;;5.00;99.90;;;;;;4992328;28;20050;-89
2021/12/04 13:49:26;;;;;;;43.55;23.23;;;5.00;99.90;;;;;;4991430;28;20052;-88
2021/12/04 13:52:06;;;;;;;43.90;23.67;;;5.00;99.90;;;;;;4992930;28;20552;-89
2021/12/04 13:54:35;;;;;;;39.60;23.35;;;5.00;99.90;;;;;;5008726;28;20045;-88
2021/12/04 13:57:10;;;;;;;43.67;24.77;;;6.20;99.90;;;;;;4996362;28;20076;-88
2021/12/04 13:59:36;;;;;;;42.00;23.35;;;5.00;99.90;;;;;;4995772;28;20473;-88
2021/12/04 14:02:02;;;;;;;47.55;25.80;;;6.20;99.90;;;;;;4995839;28;20049;-88
2021/12/04 14:04:28;;;;;;;48.47;23.98;;;5.00;99.90;;;;;;4987229;28;20134;-88
2021/12/04 14:07:08;;;;;;;48.50;24.98;;;5.20;99.90;;;;;;4995902;28;20125;-89
2021/12/04 14:09:37;;;;;;;45.25;24.92;;;4.90;99.90;;;;;;5010616;28;20042;-89
2021/12/04 14:12:04;;;;;;;49.30;24.67;;;6.10;99.90;;;;;;4995905;28;20160;-89
2021/12/04 14:14:32;;;;;;;48.92;23.83;;;5.00;99.90;;;;;;4995425;28;20054;-90
2021/12/04 14:17:05;;;;;;;48.25;25.50;;;5.60;99.90;;;;;;4995320;28;20038;-88
2021/12/04 14:19:31;;;;;;;58.58;25.58;;;4.90;99.90;;;;;;4994289;28;20065;-88
2021/12/04 14:22:08;;;;;;;59.72;26.98;;;5.40;99.90;;;;;;4995680;28;20489;-89
2021/12/04 14:24:42;;;;;;;69.40;27.08;;;5.00;99.90;;;;;;4994183;28;20042;-89
2021/12/04 14:27:10;;;;;;;58.25;25.50;;;5.00;99.90;;;;;;4992495;28;20038;-89
2021/12/04 14:29:41;;;;;;;67.30;27.98;;;4.90;99.90;;;;;;4991499;28;20109;-89
2021/12/04 14:32:10;;;;;;;68.03;26.38;;;4.60;99.90;;;;;;4992715;28;20093;-89
2021/12/04 14:34:36;;;;;;;75.03;27.95;;;4.90;99.90;;;;;;4990325;28;20047;-89
2021/12/04 14:37:10;;;;;;;67.95;26.80;;;4.90;99.90;;;;;;4991739;28;20153;-89
2021/12/04 14:39:38;;;;;;;62.50;25.38;;;4.90;99.90;;;;;;4991236;28;20093;-88
2021/12/04 14:42:20;;;;;;;65.15;27.80;;;5.60;99.90;;;;;;4991514;28;20501;-88
2021/12/04 14:44:54;;;;;;;60.85;26.67;;;4.90;99.90;;;;;;4990740;28;20773;-87
2021/12/04 14:47:22;;;;;;;59.08;27.08;;;4.90;99.90;;;;;;4990571;28;20088;-88
2021/12/04 14:49:51;;;;;;;60.83;28.77;;;4.90;99.90;;;;;;4990235;28;20648;-88
2021/12/04 14:52:20;;;;;;;59.88;28.67;;;4.90;99.90;;;;;;4990615;28;20129;-87
2021/12/04 14:54:47;;;;;;;66.38;28.23;;;5.90;99.90;;;;;;4989753;28;20042;-88
2021/12/04 14:57:28;;;;;;;58.63;25.92;;;5.60;99.90;;;;;;4991746;28;20042;-88
2021/12/04 15:00:15;;;;;;;54.20;24.17;;;4.90;99.90;;;;;;4991356;28;20047;-88